createdAt,value
2018-12-13T00:01:11.351Z,3.50
2018-12-13T00:03:39.848Z,3.50
2018-12-13T00:06:09.028Z,3.50
2018-12-13T00:08:37.521Z,3.60
2018-12-13T00:11:06.003Z,3.60
2018-12-13T00:13:34.466Z,3.60
2018-12-13T00:16:02.956Z,3.60
2018-12-13T00:18:31.535Z,3.60
2018-12-13T00:21:00.098Z,3.60
2018-12-13T00:23:28.617Z,3.60
2018-12-13T00:25:57.148Z,3.60
2018-12-13T00:28:25.636Z,3.60
2018-12-13T00:30:54.224Z,3.60
2018-12-13T00:33:22.730Z,3.60
2018-12-13T00:35:51.372Z,3.60
2018-12-13T00:38:19.874Z,3.50
2018-12-13T00:40:48.330Z,3.50
2018-12-13T00:43:16.917Z,3.40
2018-12-13T00:45:45.352Z,3.30
2018-12-13T00:48:14.421Z,3.20
2018-12-13T00:50:42.931Z,3.10
2018-12-13T00:53:11.347Z,3.10
2018-12-13T00:55:39.776Z,3.00
2018-12-13T00:58:08.290Z,2.90
2018-12-13T01:00:36.850Z,2.90
2018-12-13T01:03:05.351Z,2.80
2018-12-13T01:05:34.023Z,2.70
2018-12-13T01:08:02.468Z,2.70
2018-12-13T01:10:30.963Z,2.60
2018-12-13T01:12:59.400Z,2.60
2018-12-13T01:15:32.103Z,2.60
2018-12-13T01:18:00.692Z,2.50
2018-12-13T01:20:29.203Z,2.60
2018-12-13T01:22:57.642Z,2.60
2018-12-13T01:25:26.128Z,2.50
2018-12-13T01:27:54.584Z,2.50
2018-12-13T01:30:23.087Z,2.40
2018-12-13T01:32:51.767Z,2.40
2018-12-13T01:35:20.363Z,2.30
2018-12-13T01:37:48.948Z,2.30
2018-12-13T01:40:17.934Z,2.20
2018-12-13T01:42:46.676Z,2.10
2018-12-13T01:45:15.357Z,2.10
2018-12-13T01:47:45.104Z,2.10
2018-12-13T01:50:13.700Z,2.00
2018-12-13T01:52:42.977Z,2.00
2018-12-13T01:55:11.490Z,1.90
2018-12-13T01:57:40.355Z,1.90
2018-12-13T02:00:09.313Z,1.90
2018-12-13T02:02:38.327Z,1.80
2018-12-13T02:05:07.326Z,1.80
2018-12-13T02:07:36.157Z,1.70
2018-12-13T02:10:05.163Z,1.70
2018-12-13T02:12:33.798Z,1.70
2018-12-13T02:15:02.689Z,1.70
2018-12-13T02:17:31.485Z,1.70
2018-12-13T02:20:00.047Z,1.80
2018-12-13T02:22:28.654Z,1.80
2018-12-13T02:24:57.505Z,1.80
2018-12-13T02:27:26.666Z,1.90
2018-12-13T02:29:55.516Z,1.90
2018-12-13T02:32:25.211Z,1.90
2018-12-13T02:34:54.477Z,1.80
2018-12-13T02:37:23.318Z,1.80
2018-12-13T02:39:52.054Z,1.80
2018-12-13T02:42:21.115Z,1.90
2018-12-13T02:44:50.177Z,1.90
2018-12-13T02:47:19.144Z,2.00
2018-12-13T02:49:47.882Z,2.10
2018-12-13T02:52:16.829Z,2.20
2018-12-13T02:54:45.798Z,2.30
2018-12-13T02:57:14.834Z,2.30
2018-12-13T02:59:44.265Z,2.30
2018-12-13T03:02:13.369Z,2.30
2018-12-13T03:04:42.659Z,2.30
2018-12-13T03:07:13.932Z,2.30
2018-12-13T03:09:42.099Z,2.30
2018-12-13T03:12:11.068Z,2.30
2018-12-13T03:14:40.457Z,2.30
2018-12-13T03:17:10.549Z,2.20
2018-12-13T03:19:39.699Z,2.10
2018-12-13T03:22:09.554Z,2.10
2018-12-13T03:24:38.691Z,2.00
2018-12-13T03:27:07.869Z,2.10
2018-12-13T03:29:37.265Z,2.00
2018-12-13T03:32:06.336Z,1.90
2018-12-13T03:34:35.532Z,1.90
2018-12-13T03:37:04.916Z,1.80
2018-12-13T03:39:33.786Z,1.80
2018-12-13T03:42:02.570Z,1.80
2018-12-13T03:44:31.519Z,1.90
2018-12-13T03:47:00.731Z,1.90
2018-12-13T03:49:29.824Z,1.90
2018-12-13T03:51:58.789Z,1.90
2018-12-13T03:54:27.581Z,1.90
2018-12-13T03:56:57.037Z,1.80
2018-12-13T03:59:26.385Z,1.90
2018-12-13T04:01:55.468Z,1.90
2018-12-13T04:04:25.389Z,1.80
2018-12-13T04:06:54.416Z,1.80
2018-12-13T04:09:23.419Z,1.80
2018-12-13T04:11:52.973Z,1.70
2018-12-13T04:14:22.413Z,1.70
2018-12-13T04:16:51.613Z,1.70
2018-12-13T04:19:20.876Z,1.70
2018-12-13T04:21:51.085Z,1.60
2018-12-13T04:24:20.463Z,1.60
2018-12-13T04:26:50.171Z,1.60
2018-12-13T04:29:19.911Z,1.60
2018-12-13T04:31:49.000Z,1.60
2018-12-13T04:34:18.188Z,1.50
2018-12-13T04:36:47.487Z,1.50
2018-12-13T04:39:17.237Z,1.50
2018-12-13T04:41:45.972Z,1.50
2018-12-13T04:44:15.493Z,1.50
2018-12-13T04:46:44.916Z,1.60
2018-12-13T04:49:14.345Z,1.60
2018-12-13T04:51:43.094Z,1.60
2018-12-13T04:54:12.185Z,1.60
2018-12-13T04:56:42.462Z,1.60
2018-12-13T04:59:11.224Z,1.60
2018-12-13T05:01:40.292Z,1.60
2018-12-13T05:04:13.787Z,1.60
2018-12-13T05:06:43.523Z,1.60
2018-12-13T05:09:12.512Z,1.60
2018-12-13T05:11:41.709Z,1.60
2018-12-13T05:14:10.710Z,1.60
2018-12-13T05:16:39.567Z,1.60
2018-12-13T05:19:08.489Z,1.60
2018-12-13T05:21:37.470Z,1.60
2018-12-13T05:24:06.709Z,1.60
2018-12-13T05:26:35.458Z,1.50
2018-12-13T05:29:04.605Z,1.50
2018-12-13T05:31:33.567Z,1.50
2018-12-13T05:34:02.079Z,1.50
2018-12-13T05:36:30.775Z,1.50
2018-12-13T05:38:59.401Z,1.50
2018-12-13T05:41:28.048Z,1.40
2018-12-13T05:43:57.385Z,1.40
2018-12-13T05:46:26.935Z,1.40
2018-12-13T05:48:55.592Z,1.30
2018-12-13T05:51:24.720Z,1.30
2018-12-13T05:53:53.570Z,1.30
2018-12-13T05:56:22.781Z,1.30
2018-12-13T05:58:51.539Z,1.30
2018-12-13T06:01:21.102Z,1.30
2018-12-13T06:03:49.636Z,1.20
2018-12-13T06:06:18.358Z,1.20
2018-12-13T06:08:47.264Z,1.20
2018-12-13T06:11:16.449Z,1.20
2018-12-13T06:13:45.285Z,1.20
2018-12-13T06:16:13.921Z,1.10
2018-12-13T06:18:42.740Z,1.10
2018-12-13T06:21:11.955Z,1.00
2018-12-13T06:23:40.780Z,0.90
2018-12-13T06:26:09.444Z,0.90
2018-12-13T06:28:38.668Z,0.90
2018-12-13T06:31:09.251Z,0.90
2018-12-13T06:33:38.264Z,0.90
2018-12-13T06:36:07.235Z,0.80
2018-12-13T06:38:36.020Z,0.80
2018-12-13T06:41:04.976Z,0.80
2018-12-13T06:43:34.755Z,0.80
2018-12-13T06:46:03.844Z,0.70
2018-12-13T06:48:32.889Z,0.70
2018-12-13T06:51:02.017Z,0.70
2018-12-13T06:53:31.087Z,0.70
2018-12-13T06:56:00.333Z,0.70
2018-12-13T06:58:29.840Z,0.60
2018-12-13T07:00:58.860Z,0.60
2018-12-13T07:03:27.645Z,0.70
2018-12-13T07:05:56.587Z,0.70
2018-12-13T07:08:25.921Z,0.70
2018-12-13T07:10:54.975Z,0.70
2018-12-13T07:13:24.907Z,0.70
2018-12-13T07:15:54.041Z,0.70
2018-12-13T07:18:22.855Z,0.70
2018-12-13T07:20:51.930Z,0.60
2018-12-13T07:23:21.624Z,0.70
2018-12-13T07:25:50.660Z,0.70
2018-12-13T07:28:19.615Z,0.70
2018-12-13T07:30:48.333Z,0.70
2018-12-13T07:33:17.244Z,0.70
2018-12-13T07:35:46.305Z,0.70
2018-12-13T07:38:15.308Z,0.70
2018-12-13T07:40:44.354Z,0.70
2018-12-13T07:43:13.375Z,0.70
2018-12-13T07:45:42.515Z,0.80
2018-12-13T07:48:11.628Z,0.80
2018-12-13T07:50:41.402Z,0.90
2018-12-13T07:53:10.445Z,0.90
2018-12-13T07:55:39.689Z,1.00
2018-12-13T07:58:08.643Z,1.10
2018-12-13T08:00:38.199Z,1.10
2018-12-13T08:03:06.991Z,1.20
2018-12-13T08:05:35.890Z,1.30
2018-12-13T08:08:05.900Z,1.40
2018-12-13T08:10:34.800Z,1.60
2018-12-13T08:13:04.116Z,1.80
2018-12-13T08:15:33.435Z,2.10
2018-12-13T08:18:02.314Z,2.30
2018-12-13T08:20:31.332Z,2.60
2018-12-13T08:23:00.229Z,2.80
2018-12-13T08:25:29.401Z,3.20
2018-12-13T08:27:58.641Z,3.50
2018-12-13T08:30:28.781Z,3.90
2018-12-13T08:32:58.175Z,4.10
2018-12-13T08:35:27.766Z,4.40
2018-12-13T08:37:56.987Z,4.90
2018-12-13T08:40:26.393Z,5.30
2018-12-13T08:42:55.378Z,5.40
2018-12-13T08:45:24.416Z,5.30
2018-12-13T08:47:53.208Z,5.40
2018-12-13T08:50:21.713Z,5.70
2018-12-13T08:52:50.189Z,5.90
2018-12-13T08:55:18.815Z,6.10
2018-12-13T08:57:47.491Z,6.50
2018-12-13T09:00:16.074Z,6.30
2018-12-13T09:02:45.194Z,6.60
2018-12-13T09:05:13.806Z,7.10
2018-12-13T09:07:42.640Z,7.70
2018-12-13T09:10:11.448Z,8.20
2018-12-13T09:12:40.012Z,8.30
2018-12-13T09:15:08.873Z,8.50
2018-12-13T09:17:37.695Z,8.60
2018-12-13T09:20:06.837Z,8.30
2018-12-13T09:22:35.892Z,8.00
2018-12-13T09:25:04.919Z,7.70
2018-12-13T09:27:33.927Z,7.80
2018-12-13T09:30:03.445Z,8.40
2018-12-13T09:32:32.092Z,8.60
2018-12-13T09:35:00.539Z,8.60
2018-12-13T09:37:29.112Z,8.70
2018-12-13T09:39:58.212Z,8.60
2018-12-13T09:42:26.980Z,8.10
2018-12-13T09:44:55.518Z,8.30
2018-12-13T09:47:24.262Z,7.90
2018-12-13T09:49:52.753Z,7.70
2018-12-13T09:52:21.336Z,7.70
2018-12-13T09:54:49.782Z,7.80
2018-12-13T09:57:18.461Z,8.00
2018-12-13T09:59:47.038Z,7.80
2018-12-13T10:02:15.583Z,8.30
2018-12-13T10:04:44.186Z,8.60
2018-12-13T10:07:12.849Z,8.40
2018-12-13T10:09:41.437Z,8.40
2018-12-13T10:12:09.999Z,8.70
2018-12-13T10:14:38.523Z,8.70
2018-12-13T10:17:07.196Z,8.60
2018-12-13T10:19:35.724Z,9.00
2018-12-13T10:22:04.518Z,9.20
2018-12-13T10:24:33.101Z,9.20
2018-12-13T10:27:01.717Z,9.30
2018-12-13T10:29:30.315Z,9.30
2018-12-13T10:31:59.021Z,9.50
2018-12-13T10:34:27.616Z,9.70
2018-12-13T10:36:56.111Z,9.50
2018-12-13T10:39:24.595Z,9.10
2018-12-13T10:41:53.109Z,8.60
2018-12-13T10:44:26.981Z,8.00
2018-12-13T10:46:57.252Z,7.30
2018-12-13T10:49:26.365Z,6.60
2018-12-13T10:51:55.008Z,6.40
2018-12-13T10:54:23.870Z,6.10
2018-12-13T10:56:52.630Z,5.70
2018-12-13T10:59:21.455Z,5.60
2018-12-13T11:01:55.164Z,5.40
2018-12-13T11:04:23.823Z,5.40
2018-12-13T11:06:52.783Z,5.40
2018-12-13T11:09:22.291Z,5.40
2018-12-13T11:11:50.964Z,5.20
2018-12-13T11:14:19.476Z,5.30
2018-12-13T11:16:47.957Z,5.30
2018-12-13T11:19:16.438Z,5.30
2018-12-13T11:21:45.093Z,5.20
2018-12-13T11:24:13.871Z,5.30
2018-12-13T11:26:42.500Z,5.30
2018-12-13T11:29:22.533Z,5.20
2018-12-13T11:31:51.374Z,5.10
2018-12-13T11:34:20.604Z,5.10
2018-12-13T11:36:49.643Z,5.10
2018-12-13T11:39:18.805Z,5.00
2018-12-13T11:41:47.726Z,4.90
2018-12-13T11:44:16.651Z,4.90
2018-12-13T11:46:45.835Z,4.90
2018-12-13T11:49:14.973Z,5.00
2018-12-13T11:51:44.565Z,4.90
2018-12-13T11:54:30.829Z,4.90
2018-12-13T11:56:59.576Z,4.90
2018-12-13T11:59:28.791Z,4.90
2018-12-13T12:01:58.726Z,4.80
2018-12-13T12:04:27.495Z,4.80
2018-12-13T12:06:56.481Z,4.80
2018-12-13T12:09:25.917Z,4.80
2018-12-13T12:11:55.289Z,4.80
2018-12-13T12:14:23.926Z,4.70
2018-12-13T12:16:52.743Z,4.70
2018-12-13T12:19:21.828Z,4.70
2018-12-13T12:21:50.700Z,4.60
2018-12-13T12:24:20.074Z,4.60
2018-12-13T12:26:49.124Z,4.60
2018-12-13T12:29:17.883Z,4.60
2018-12-13T12:31:46.348Z,4.60
2018-12-13T12:34:14.851Z,4.60
2018-12-13T12:36:43.450Z,4.60
2018-12-13T12:39:11.926Z,4.60
2018-12-13T12:41:40.406Z,4.60
2018-12-13T12:44:08.861Z,4.70
2018-12-13T12:46:37.362Z,4.60
2018-12-13T12:49:06.940Z,4.60
2018-12-13T12:51:35.540Z,4.60
2018-12-13T12:54:03.986Z,4.70
2018-12-13T12:56:32.528Z,4.70
2018-12-13T12:59:00.977Z,4.80
2018-12-13T13:01:29.490Z,4.80
2018-12-13T13:03:58.431Z,4.80
2018-12-13T13:06:27.062Z,4.80
2018-12-13T13:08:56.120Z,4.70
2018-12-13T13:11:24.649Z,4.70
2018-12-13T13:13:53.119Z,4.70
2018-12-13T13:16:21.604Z,4.70
2018-12-13T13:18:50.091Z,4.70
2018-12-13T13:21:18.569Z,4.60
2018-12-13T13:23:47.239Z,4.60
2018-12-13T13:26:15.720Z,4.60
2018-12-13T13:28:44.262Z,4.60
2018-12-13T13:31:12.702Z,4.60
2018-12-13T13:33:41.231Z,4.50
2018-12-13T13:36:09.715Z,4.50
2018-12-13T13:38:38.414Z,4.50
2018-12-13T13:41:07.228Z,4.50
2018-12-13T13:43:35.848Z,4.50
2018-12-13T13:46:04.445Z,4.60
2018-12-13T13:48:32.984Z,4.60
2018-12-13T13:51:01.461Z,4.60
2018-12-13T13:53:29.895Z,4.60
2018-12-13T13:55:58.393Z,4.60
2018-12-13T13:58:26.915Z,4.60
2018-12-13T14:00:55.491Z,4.60
2018-12-13T14:03:24.072Z,4.60
2018-12-13T14:05:52.623Z,4.60
2018-12-13T14:08:21.104Z,4.50
2018-12-13T14:10:49.655Z,4.50
2018-12-13T14:13:18.172Z,4.50
2018-12-13T14:15:46.664Z,4.40
2018-12-13T14:18:15.115Z,4.40
2018-12-13T14:20:43.629Z,4.40
2018-12-13T14:23:12.263Z,4.40
2018-12-13T14:25:40.788Z,4.30
2018-12-13T14:28:09.259Z,4.30
2018-12-13T14:30:45.910Z,4.30
2018-12-13T14:33:15.005Z,4.20
2018-12-13T14:35:43.520Z,4.20
2018-12-13T14:38:11.962Z,4.10
2018-12-13T14:40:40.518Z,4.10
2018-12-13T14:43:08.997Z,4.10
2018-12-13T14:45:37.527Z,4.10
2018-12-13T14:48:05.998Z,4.10
2018-12-13T14:50:34.543Z,4.00
2018-12-13T14:53:03.043Z,4.00
2018-12-13T14:55:32.135Z,3.90
2018-12-13T14:58:00.657Z,3.90
2018-12-13T15:00:30.064Z,3.80
2018-12-13T15:02:58.600Z,3.80
2018-12-13T15:05:27.141Z,3.70
2018-12-13T15:07:56.134Z,3.70
2018-12-13T15:10:24.631Z,3.60
2018-12-13T15:12:53.156Z,3.60
2018-12-13T15:15:21.617Z,3.60
2018-12-13T15:17:50.096Z,3.50
2018-12-13T15:20:18.609Z,3.50
2018-12-13T15:22:47.295Z,3.40
2018-12-13T15:25:15.876Z,3.40
2018-12-13T15:27:44.571Z,3.30
2018-12-13T15:30:13.140Z,3.20
2018-12-13T15:32:41.762Z,3.20
2018-12-13T15:35:10.241Z,3.20
2018-12-13T15:37:38.852Z,3.10
2018-12-13T15:40:07.472Z,3.00
2018-12-13T15:42:35.980Z,3.00
2018-12-13T15:45:05.657Z,3.00
2018-12-13T15:47:35.041Z,2.90
2018-12-13T15:50:03.802Z,2.80
2018-12-13T15:52:32.828Z,2.80
2018-12-13T15:55:01.334Z,2.70
2018-12-13T15:57:29.904Z,2.70
2018-12-13T15:59:58.401Z,2.70
2018-12-13T16:02:26.993Z,2.60
2018-12-13T16:04:55.439Z,2.60
2018-12-13T16:07:23.915Z,2.50
2018-12-13T16:09:52.519Z,2.40
2018-12-13T16:12:20.954Z,2.40
2018-12-13T16:14:49.718Z,2.40
2018-12-13T16:17:18.428Z,2.40
2018-12-13T16:19:46.988Z,2.30
2018-12-13T16:22:15.512Z,2.30
2018-12-13T16:24:44.095Z,2.30
2018-12-13T16:27:13.088Z,2.20
2018-12-13T16:29:41.662Z,2.20
2018-12-13T16:32:10.463Z,2.20
2018-12-13T16:34:38.961Z,2.10
2018-12-13T16:37:07.628Z,2.10
2018-12-13T16:39:37.636Z,2.00
2018-12-13T16:42:06.493Z,2.00
2018-12-13T16:44:35.808Z,2.00
2018-12-13T16:47:04.797Z,2.00
2018-12-13T16:52:13.288Z,1.90
2018-12-13T16:54:42.539Z,1.90
2018-12-13T16:57:11.716Z,1.80
2018-12-13T16:59:40.356Z,1.80
2018-12-13T17:02:09.035Z,1.70
2018-12-13T17:04:37.673Z,1.70
2018-12-13T17:07:06.176Z,1.70
2018-12-13T17:09:34.854Z,1.60
2018-12-13T17:12:03.452Z,1.60
2018-12-13T17:14:32.249Z,1.50
2018-12-13T17:17:00.746Z,1.50
2018-12-13T17:19:29.510Z,1.40
2018-12-13T17:21:58.056Z,1.30
2018-12-13T17:24:26.527Z,1.30
2018-12-13T17:26:55.619Z,1.30
2018-12-13T17:29:24.162Z,1.30
2018-12-13T17:31:52.728Z,1.30
2018-12-13T17:34:21.400Z,1.30
2018-12-13T17:36:50.415Z,1.30
2018-12-13T17:39:19.176Z,1.30
2018-12-13T17:41:47.699Z,1.30
2018-12-13T17:44:16.169Z,1.30
2018-12-13T17:46:45.219Z,1.30
2018-12-13T17:49:13.934Z,1.30
2018-12-13T17:51:42.418Z,1.40
2018-12-13T17:54:10.960Z,1.40
2018-12-13T17:56:39.622Z,1.50
2018-12-13T17:59:08.111Z,1.60
2018-12-13T18:01:36.644Z,1.60
2018-12-13T18:04:05.186Z,1.70
2018-12-13T18:06:33.655Z,1.80
2018-12-13T18:09:02.255Z,1.80
2018-12-13T18:11:30.852Z,1.80
2018-12-13T18:13:59.433Z,1.90
2018-12-13T18:16:27.958Z,2.00
2018-12-13T18:18:57.244Z,2.10
2018-12-13T18:21:26.237Z,2.10
2018-12-13T18:23:54.910Z,2.10
2018-12-13T18:26:23.412Z,2.20
2018-12-13T18:28:51.901Z,2.10
2018-12-13T18:31:20.371Z,2.10
2018-12-13T18:33:48.908Z,2.20
2018-12-13T18:36:17.445Z,2.20
2018-12-13T18:38:46.148Z,2.20
2018-12-13T18:41:14.679Z,2.20
2018-12-13T18:43:43.231Z,2.20
2018-12-13T18:46:11.698Z,2.20
2018-12-13T18:48:40.207Z,2.30
2018-12-13T18:51:08.706Z,2.30
2018-12-13T18:53:37.186Z,2.30
2018-12-13T18:56:05.681Z,2.30
2018-12-13T18:58:34.179Z,2.40
2018-12-13T19:01:02.696Z,2.40
2018-12-13T19:03:31.237Z,2.40
2018-12-13T19:05:59.826Z,2.40
2018-12-13T19:08:28.847Z,2.50
2018-12-13T19:10:57.402Z,2.60
2018-12-13T19:13:26.013Z,2.60
2018-12-13T19:15:54.647Z,2.60
2018-12-13T19:18:23.137Z,2.70
2018-12-13T19:20:51.666Z,2.70
2018-12-13T19:23:20.185Z,2.70
2018-12-13T19:25:48.974Z,2.70
2018-12-13T19:28:17.973Z,2.80
2018-12-13T19:30:46.516Z,2.80
2018-12-13T19:33:14.954Z,2.90
2018-12-13T19:35:43.493Z,2.90
2018-12-13T19:38:13.052Z,2.90
2018-12-13T19:40:41.564Z,2.90
2018-12-13T19:43:10.063Z,3.00
2018-12-13T19:45:38.662Z,3.00
2018-12-13T19:48:07.242Z,3.00
2018-12-13T19:50:35.860Z,3.00
2018-12-13T19:53:04.756Z,3.00
2018-12-13T19:55:33.408Z,3.00
2018-12-13T19:58:01.885Z,3.00
2018-12-13T20:00:30.401Z,3.00
2018-12-13T20:02:58.904Z,2.90
2018-12-13T20:05:27.589Z,2.90
2018-12-13T20:07:56.195Z,2.90
2018-12-13T20:10:25.186Z,2.90
2018-12-13T20:12:54.255Z,2.90
2018-12-13T20:15:24.197Z,2.80
2018-12-13T20:17:53.295Z,2.80
2018-12-13T20:20:21.770Z,2.80
2018-12-13T20:22:50.335Z,2.80
2018-12-13T20:25:18.901Z,2.70
2018-12-13T20:27:47.503Z,2.70
2018-12-13T20:30:16.235Z,2.70
2018-12-13T20:32:44.774Z,2.70
2018-12-13T20:35:13.689Z,2.80
2018-12-13T20:37:42.631Z,2.70
2018-12-13T20:40:11.179Z,2.80
2018-12-13T20:42:39.711Z,2.80
2018-12-13T20:45:15.427Z,2.80
2018-12-13T20:47:44.048Z,2.80
2018-12-13T20:50:12.807Z,2.90
2018-12-13T20:52:41.264Z,2.90
2018-12-13T20:55:10.003Z,2.90
2018-12-13T20:57:38.440Z,2.90
2018-12-13T21:00:09.688Z,2.90
2018-12-13T21:02:44.099Z,2.90
2018-12-13T21:05:12.810Z,2.90
2018-12-13T21:07:41.272Z,2.80
2018-12-13T21:10:10.848Z,2.80
2018-12-13T21:12:39.302Z,2.70
2018-12-13T21:15:08.971Z,2.70
2018-12-13T21:17:37.943Z,2.70
2018-12-13T21:20:06.582Z,2.70
2018-12-13T21:22:35.129Z,2.70
2018-12-13T21:25:03.821Z,2.60
2018-12-13T21:27:32.731Z,2.60
2018-12-13T21:30:02.815Z,2.60
2018-12-13T21:32:31.711Z,2.60
2018-12-13T21:35:00.135Z,2.60
2018-12-13T21:37:28.634Z,2.50
2018-12-13T21:39:57.262Z,2.50
2018-12-13T21:42:26.475Z,2.50
2018-12-13T21:44:55.004Z,2.50
2018-12-13T21:47:23.650Z,2.40
2018-12-13T21:49:52.208Z,2.40
2018-12-13T21:52:20.792Z,2.40
2018-12-13T21:54:49.258Z,2.30
2018-12-13T21:57:18.359Z,2.30
2018-12-13T21:59:46.909Z,2.30
2018-12-13T22:02:15.844Z,2.30
2018-12-13T22:04:44.371Z,2.30
2018-12-13T22:07:12.910Z,2.30
2018-12-13T22:09:41.569Z,2.30
2018-12-13T22:12:10.025Z,2.30
2018-12-13T22:14:38.635Z,2.30
2018-12-13T22:17:07.133Z,2.30
2018-12-13T22:19:35.625Z,2.30
2018-12-13T22:22:04.731Z,2.30
2018-12-13T22:24:33.306Z,2.30
2018-12-13T22:42:56.346Z,2.10
2018-12-13T22:45:24.869Z,2.10
2018-12-13T22:47:53.393Z,2.20
2018-12-13T22:50:22.503Z,2.20
2018-12-13T22:52:51.003Z,2.20
2018-12-13T22:55:19.601Z,2.30
2018-12-13T22:57:48.037Z,2.30
2018-12-13T23:00:16.525Z,2.30
2018-12-13T23:02:45.048Z,2.30
2018-12-13T23:05:13.537Z,2.30
2018-12-13T23:07:41.986Z,2.30
2018-12-13T23:10:10.448Z,2.30
2018-12-13T23:12:38.936Z,2.30
2018-12-13T23:15:07.528Z,2.30
2018-12-13T23:17:36.059Z,2.30
2018-12-13T23:20:05.478Z,2.30
2018-12-13T23:22:33.961Z,2.40
2018-12-13T23:25:02.968Z,2.40
2018-12-13T23:27:31.434Z,2.40
2018-12-13T23:29:59.864Z,2.40
2018-12-13T23:32:28.921Z,2.40
2018-12-13T23:34:57.371Z,2.40
2018-12-13T23:37:25.832Z,2.40
2018-12-13T23:39:54.295Z,2.40
2018-12-13T23:42:22.769Z,2.40
2018-12-13T23:44:51.209Z,2.40
2018-12-13T23:47:19.690Z,2.40
2018-12-13T23:49:48.133Z,2.40
2018-12-13T23:52:16.607Z,2.40
2018-12-13T23:54:45.071Z,2.40
2018-12-13T23:57:13.666Z,2.40
2018-12-13T23:59:42.300Z,2.40
